sensor_id;sensor_type;location;lat;lon;timestamp;P1;durP1;ratioP1;P2;durP2;ratioP2
29214;SDS011;16252;49.816;7.964;2023-07-09T00:01:58;7.10;;;3.47;;
29214;SDS011;16252;49.816;7.964;2023-07-09T00:04:24;5.72;;;3.25;;
29214;SDS011;16252;49.816;7.964;2023-07-09T00:06:49;4.63;;;2.95;;
29214;SDS011;16252;49.816;7.964;2023-07-09T00:09:20;4.70;;;3.33;;
29214;SDS011;16252;49.816;7.964;2023-07-09T00:11:46;6.85;;;3.55;;
29214;SDS011;16252;49.816;7.964;2023-07-09T00:14:13;4.90;;;3.45;;
29214;SDS011;16252;49.816;7.964;2023-07-09T00:16:41;4.60;;;3.40;;
29214;SDS011;16252;49.816;7.964;2023-07-09T00:19:11;6.53;;;3.83;;
29214;SDS011;16252;49.816;7.964;2023-07-09T00:21:41;7.85;;;3.92;;
29214;SDS011;16252;49.816;7.964;2023-07-09T00:24:07;4.38;;;3.42;;
29214;SDS011;16252;49.816;7.964;2023-07-09T00:26:35;5.20;;;3.63;;
29214;SDS011;16252;49.816;7.964;2023-07-09T00:29:03;7.15;;;3.90;;
29214;SDS011;16252;49.816;7.964;2023-07-09T00:31:28;4.75;;;3.30;;
29214;SDS011;16252;49.816;7.964;2023-07-09T00:33:54;7.75;;;3.83;;
29214;SDS011;16252;49.816;7.964;2023-07-09T00:36:30;4.82;;;3.40;;
29214;SDS011;16252;49.816;7.964;2023-07-09T00:38:56;4.10;;;3.35;;
29214;SDS011;16252;49.816;7.964;2023-07-09T00:41:24;6.57;;;4.32;;
29214;SDS011;16252;49.816;7.964;2023-07-09T00:43:50;6.32;;;3.55;;
29214;SDS011;16252;49.816;7.964;2023-07-09T00:48:49;7.60;;;3.83;;
29214;SDS011;16252;49.816;7.964;2023-07-09T00:51:19;7.43;;;3.30;;
29214;SDS011;16252;49.816;7.964;2023-07-09T00:53:48;5.60;;;3.38;;
29214;SDS011;16252;49.816;7.964;2023-07-09T00:56:16;6.97;;;3.40;;
29214;SDS011;16252;49.816;7.964;2023-07-09T00:58:50;5.65;;;3.20;;
29214;SDS011;16252;49.816;7.964;2023-07-09T01:01:18;9.20;;;3.60;;
29214;SDS011;16252;49.816;7.964;2023-07-09T01:03:48;5.88;;;3.05;;
29214;SDS011;16252;49.816;7.964;2023-07-09T01:06:18;4.35;;;3.45;;
29214;SDS011;16252;49.816;7.964;2023-07-09T01:08:49;6.88;;;3.63;;
29214;SDS011;16252;49.816;7.964;2023-07-09T01:11:19;5.03;;;3.00;;
29214;SDS011;16252;49.816;7.964;2023-07-09T01:13:49;6.05;;;3.90;;
29214;SDS011;16252;49.816;7.964;2023-07-09T01:16:19;6.25;;;3.63;;
29214;SDS011;16252;49.816;7.964;2023-07-09T01:18:48;8.10;;;3.50;;
29214;SDS011;16252;49.816;7.964;2023-07-09T01:21:14;6.72;;;3.35;;
29214;SDS011;16252;49.816;7.964;2023-07-09T01:23:43;6.25;;;3.55;;
29214;SDS011;16252;49.816;7.964;2023-07-09T01:26:10;4.78;;;3.28;;
29214;SDS011;16252;49.816;7.964;2023-07-09T01:28:37;5.03;;;3.38;;
29214;SDS011;16252;49.816;7.964;2023-07-09T01:31:08;4.70;;;3.03;;
29214;SDS011;16252;49.816;7.964;2023-07-09T01:33:43;9.30;;;3.55;;
29214;SDS011;16252;49.816;7.964;2023-07-09T01:36:10;9.05;;;4.00;;
29214;SDS011;16252;49.816;7.964;2023-07-09T01:38:38;6.05;;;3.67;;
29214;SDS011;16252;49.816;7.964;2023-07-09T01:41:04;6.18;;;2.95;;
29214;SDS011;16252;49.816;7.964;2023-07-09T01:43:30;7.82;;;3.60;;
29214;SDS011;16252;49.816;7.964;2023-07-09T01:45:56;6.20;;;3.75;;
29214;SDS011;16252;49.816;7.964;2023-07-09T01:48:22;4.15;;;2.88;;
29214;SDS011;16252;49.816;7.964;2023-07-09T01:50:49;4.50;;;3.17;;
29214;SDS011;16252;49.816;7.964;2023-07-09T01:53:16;4.13;;;2.58;;
29214;SDS011;16252;49.816;7.964;2023-07-09T01:55:44;6.18;;;2.92;;
29214;SDS011;16252;49.816;7.964;2023-07-09T01:58:09;5.85;;;2.95;;
29214;SDS011;16252;49.816;7.964;2023-07-09T02:00:35;10.55;;;3.20;;
29214;SDS011;16252;49.816;7.964;2023-07-09T02:03:02;5.13;;;3.13;;
29214;SDS011;16252;49.816;7.964;2023-07-09T02:05:30;5.22;;;3.30;;
29214;SDS011;16252;49.816;7.964;2023-07-09T02:07:57;5.80;;;3.58;;
29214;SDS011;16252;49.816;7.964;2023-07-09T02:10:22;7.00;;;3.10;;
29214;SDS011;16252;49.816;7.964;2023-07-09T02:12:48;12.27;;;3.53;;
29214;SDS011;16252;49.816;7.964;2023-07-09T02:15:14;8.52;;;3.58;;
29214;SDS011;16252;49.816;7.964;2023-07-09T02:17:40;11.05;;;3.60;;
29214;SDS011;16252;49.816;7.964;2023-07-09T02:20:07;9.48;;;3.60;;
29214;SDS011;16252;49.816;7.964;2023-07-09T02:22:34;7.10;;;3.13;;
29214;SDS011;16252;49.816;7.964;2023-07-09T02:24:59;9.82;;;3.63;;
29214;SDS011;16252;49.816;7.964;2023-07-09T02:27:25;12.80;;;3.75;;
29214;SDS011;16252;49.816;7.964;2023-07-09T02:29:50;10.85;;;3.55;;
29214;SDS011;16252;49.816;7.964;2023-07-09T02:32:20;7.22;;;3.50;;
29214;SDS011;16252;49.816;7.964;2023-07-09T02:34:47;14.98;;;3.85;;
29214;SDS011;16252;49.816;7.964;2023-07-09T02:37:14;7.53;;;3.20;;
29214;SDS011;16252;49.816;7.964;2023-07-09T02:39:42;4.88;;;3.28;;
29214;SDS011;16252;49.816;7.964;2023-07-09T02:42:11;6.43;;;3.58;;
29214;SDS011;16252;49.816;7.964;2023-07-09T02:44:38;6.57;;;3.50;;
29214;SDS011;16252;49.816;7.964;2023-07-09T02:47:04;6.85;;;3.55;;
29214;SDS011;16252;49.816;7.964;2023-07-09T02:49:30;6.90;;;3.65;;
29214;SDS011;16252;49.816;7.964;2023-07-09T02:51:55;6.15;;;3.88;;
29214;SDS011;16252;49.816;7.964;2023-07-09T02:54:21;7.18;;;3.33;;
29214;SDS011;16252;49.816;7.964;2023-07-09T02:56:46;8.30;;;3.40;;
29214;SDS011;16252;49.816;7.964;2023-07-09T02:59:12;9.68;;;3.70;;
29214;SDS011;16252;49.816;7.964;2023-07-09T03:01:37;4.20;;;2.78;;
29214;SDS011;16252;49.816;7.964;2023-07-09T03:04:02;8.45;;;3.05;;
29214;SDS011;16252;49.816;7.964;2023-07-09T03:06:28;9.30;;;3.90;;
29214;SDS011;16252;49.816;7.964;2023-07-09T03:08:57;5.65;;;3.10;;
29214;SDS011;16252;49.816;7.964;2023-07-09T03:11:23;5.88;;;3.42;;
29214;SDS011;16252;49.816;7.964;2023-07-09T03:13:48;4.07;;;2.92;;
29214;SDS011;16252;49.816;7.964;2023-07-09T03:16:14;7.10;;;3.08;;
29214;SDS011;16252;49.816;7.964;2023-07-09T03:18:40;6.65;;;3.22;;
29214;SDS011;16252;49.816;7.964;2023-07-09T03:21:06;6.25;;;3.60;;
29214;SDS011;16252;49.816;7.964;2023-07-09T03:23:31;4.35;;;3.50;;
29214;SDS011;16252;49.816;7.964;2023-07-09T03:25:56;7.78;;;3.13;;
29214;SDS011;16252;49.816;7.964;2023-07-09T03:28:22;8.70;;;3.10;;
29214;SDS011;16252;49.816;7.964;2023-07-09T03:30:48;8.35;;;2.92;;
29214;SDS011;16252;49.816;7.964;2023-07-09T03:33:15;8.43;;;3.35;;
29214;SDS011;16252;49.816;7.964;2023-07-09T03:35:41;5.45;;;3.08;;
29214;SDS011;16252;49.816;7.964;2023-07-09T03:38:07;7.97;;;3.70;;
29214;SDS011;16252;49.816;7.964;2023-07-09T03:40:34;12.63;;;3.53;;
29214;SDS011;16252;49.816;7.964;2023-07-09T03:42:59;10.25;;;3.05;;
29214;SDS011;16252;49.816;7.964;2023-07-09T03:45:25;7.75;;;2.88;;
29214;SDS011;16252;49.816;7.964;2023-07-09T03:47:50;11.05;;;2.78;;
29214;SDS011;16252;49.816;7.964;2023-07-09T03:50:16;9.13;;;3.15;;
29214;SDS011;16252;49.816;7.964;2023-07-09T03:52:41;9.80;;;3.80;;
29214;SDS011;16252;49.816;7.964;2023-07-09T03:55:07;7.95;;;3.60;;
29214;SDS011;16252;49.816;7.964;2023-07-09T03:57:33;5.03;;;2.60;;
29214;SDS011;16252;49.816;7.964;2023-07-09T03:59:59;8.90;;;3.03;;
29214;SDS011;16252;49.816;7.964;2023-07-09T04:02:25;9.20;;;2.92;;
29214;SDS011;16252;49.816;7.964;2023-07-09T04:04:50;5.28;;;3.38;;
29214;SDS011;16252;49.816;7.964;2023-07-09T04:07:16;6.07;;;3.22;;
29214;SDS011;16252;49.816;7.964;2023-07-09T04:09:42;8.70;;;3.22;;
29214;SDS011;16252;49.816;7.964;2023-07-09T04:12:08;9.82;;;3.38;;
29214;SDS011;16252;49.816;7.964;2023-07-09T04:14:34;14.18;;;3.63;;
29214;SDS011;16252;49.816;7.964;2023-07-09T04:16:59;8.05;;;2.45;;
29214;SDS011;16252;49.816;7.964;2023-07-09T04:19:25;10.50;;;2.88;;
29214;SDS011;16252;49.816;7.964;2023-07-09T04:21:50;11.38;;;3.17;;
29214;SDS011;16252;49.816;7.964;2023-07-09T04:24:19;9.18;;;3.08;;
29214;SDS011;16252;49.816;7.964;2023-07-09T04:26:44;13.25;;;3.00;;
29214;SDS011;16252;49.816;7.964;2023-07-09T04:29:10;8.35;;;2.90;;
29214;SDS011;16252;49.816;7.964;2023-07-09T04:31:36;7.70;;;2.72;;
29214;SDS011;16252;49.816;7.964;2023-07-09T04:34:02;8.98;;;2.90;;
29214;SDS011;16252;49.816;7.964;2023-07-09T04:36:28;7.55;;;3.50;;
29214;SDS011;16252;49.816;7.964;2023-07-09T04:38:53;8.85;;;3.50;;
29214;SDS011;16252;49.816;7.964;2023-07-09T04:41:19;10.05;;;3.22;;
29214;SDS011;16252;49.816;7.964;2023-07-09T04:43:44;9.38;;;2.90;;
29214;SDS011;16252;49.816;7.964;2023-07-09T04:46:09;7.50;;;3.25;;
29214;SDS011;16252;49.816;7.964;2023-07-09T04:48:34;7.80;;;3.70;;
29214;SDS011;16252;49.816;7.964;2023-07-09T04:51:00;11.85;;;3.63;;
29214;SDS011;16252;49.816;7.964;2023-07-09T04:53:25;5.05;;;3.25;;
29214;SDS011;16252;49.816;7.964;2023-07-09T04:55:51;5.45;;;3.55;;
29214;SDS011;16252;49.816;7.964;2023-07-09T04:58:16;5.40;;;3.22;;
29214;SDS011;16252;49.816;7.964;2023-07-09T05:00:43;7.75;;;3.80;;
29214;SDS011;16252;49.816;7.964;2023-07-09T05:03:08;8.13;;;3.45;;
29214;SDS011;16252;49.816;7.964;2023-07-09T05:05:33;6.88;;;3.80;;
29214;SDS011;16252;49.816;7.964;2023-07-09T05:07:59;6.63;;;4.47;;
29214;SDS011;16252;49.816;7.964;2023-07-09T05:10:25;4.22;;;3.20;;
29214;SDS011;16252;49.816;7.964;2023-07-09T05:12:51;7.22;;;3.42;;
29214;SDS011;16252;49.816;7.964;2023-07-09T05:15:18;6.47;;;3.90;;
29214;SDS011;16252;49.816;7.964;2023-07-09T05:17:45;6.72;;;3.60;;
29214;SDS011;16252;49.816;7.964;2023-07-09T05:20:11;10.48;;;3.83;;
29214;SDS011;16252;49.816;7.964;2023-07-09T05:22:37;5.70;;;3.85;;
29214;SDS011;16252;49.816;7.964;2023-07-09T05:25:02;4.32;;;3.47;;
29214;SDS011;16252;49.816;7.964;2023-07-09T05:27:28;8.77;;;3.35;;
29214;SDS011;16252;49.816;7.964;2023-07-09T05:29:53;8.95;;;3.83;;
29214;SDS011;16252;49.816;7.964;2023-07-09T05:32:18;5.03;;;3.55;;
29214;SDS011;16252;49.816;7.964;2023-07-09T05:34:44;10.63;;;4.18;;
29214;SDS011;16252;49.816;7.964;2023-07-09T05:37:09;9.95;;;4.32;;
29214;SDS011;16252;49.816;7.964;2023-07-09T05:39:34;5.47;;;3.50;;
29214;SDS011;16252;49.816;7.964;2023-07-09T05:41:59;7.18;;;3.17;;
29214;SDS011;16252;49.816;7.964;2023-07-09T05:44:25;12.23;;;3.70;;
29214;SDS011;16252;49.816;7.964;2023-07-09T05:46:50;5.55;;;3.83;;
29214;SDS011;16252;49.816;7.964;2023-07-09T05:49:15;6.57;;;3.58;;
29214;SDS011;16252;49.816;7.964;2023-07-09T05:51:40;5.88;;;3.03;;
29214;SDS011;16252;49.816;7.964;2023-07-09T05:54:07;5.43;;;3.60;;
29214;SDS011;16252;49.816;7.964;2023-07-09T05:56:32;9.13;;;4.20;;
29214;SDS011;16252;49.816;7.964;2023-07-09T05:58:57;5.78;;;2.92;;
29214;SDS011;16252;49.816;7.964;2023-07-09T06:01:23;6.45;;;3.67;;
29214;SDS011;16252;49.816;7.964;2023-07-09T06:03:48;5.32;;;3.78;;
29214;SDS011;16252;49.816;7.964;2023-07-09T06:06:14;9.43;;;4.35;;
29214;SDS011;16252;49.816;7.964;2023-07-09T06:08:40;4.90;;;3.30;;
29214;SDS011;16252;49.816;7.964;2023-07-09T06:11:05;7.75;;;3.92;;
29214;SDS011;16252;49.816;7.964;2023-07-09T06:13:31;5.97;;;3.88;;
29214;SDS011;16252;49.816;7.964;2023-07-09T06:15:57;8.80;;;4.07;;
29214;SDS011;16252;49.816;7.964;2023-07-09T06:18:23;4.95;;;3.70;;
29214;SDS011;16252;49.816;7.964;2023-07-09T06:20:51;6.20;;;4.03;;
29214;SDS011;16252;49.816;7.964;2023-07-09T06:23:20;6.70;;;3.53;;
29214;SDS011;16252;49.816;7.964;2023-07-09T06:25:46;5.05;;;3.45;;
29214;SDS011;16252;49.816;7.964;2023-07-09T06:28:13;4.38;;;3.38;;
29214;SDS011;16252;49.816;7.964;2023-07-09T06:30:40;3.92;;;3.47;;
29214;SDS011;16252;49.816;7.964;2023-07-09T06:33:05;6.57;;;4.18;;
29214;SDS011;16252;49.816;7.964;2023-07-09T06:35:31;5.88;;;3.35;;
29214;SDS011;16252;49.816;7.964;2023-07-09T06:37:57;5.45;;;3.47;;
29214;SDS011;16252;49.816;7.964;2023-07-09T06:40:22;6.00;;;3.40;;
29214;SDS011;16252;49.816;7.964;2023-07-09T06:42:48;6.50;;;3.58;;
29214;SDS011;16252;49.816;7.964;2023-07-09T06:45:13;7.03;;;3.95;;
29214;SDS011;16252;49.816;7.964;2023-07-09T06:47:38;4.75;;;3.80;;
29214;SDS011;16252;49.816;7.964;2023-07-09T06:50:04;5.65;;;4.35;;
29214;SDS011;16252;49.816;7.964;2023-07-09T06:52:29;7.25;;;3.97;;
29214;SDS011;16252;49.816;7.964;2023-07-09T06:54:54;5.70;;;3.75;;
29214;SDS011;16252;49.816;7.964;2023-07-09T06:57:20;3.72;;;3.13;;
29214;SDS011;16252;49.816;7.964;2023-07-09T06:59:45;6.00;;;3.55;;
29214;SDS011;16252;49.816;7.964;2023-07-09T07:02:10;3.83;;;3.22;;
29214;SDS011;16252;49.816;7.964;2023-07-09T07:04:36;5.05;;;3.67;;
29214;SDS011;16252;49.816;7.964;2023-07-09T07:07:01;6.88;;;3.28;;
29214;SDS011;16252;49.816;7.964;2023-07-09T07:09:26;3.90;;;3.30;;
29214;SDS011;16252;49.816;7.964;2023-07-09T07:11:52;5.35;;;3.38;;
29214;SDS011;16252;49.816;7.964;2023-07-09T07:14:17;5.50;;;3.70;;
29214;SDS011;16252;49.816;7.964;2023-07-09T07:16:42;6.30;;;3.40;;
29214;SDS011;16252;49.816;7.964;2023-07-09T07:19:07;3.90;;;2.85;;
29214;SDS011;16252;49.816;7.964;2023-07-09T07:21:34;4.80;;;3.67;;
29214;SDS011;16252;49.816;7.964;2023-07-09T07:24:00;7.40;;;3.60;;
29214;SDS011;16252;49.816;7.964;2023-07-09T07:26:25;4.13;;;2.97;;
29214;SDS011;16252;49.816;7.964;2023-07-09T07:28:50;7.55;;;3.58;;
29214;SDS011;16252;49.816;7.964;2023-07-09T07:31:16;4.65;;;3.53;;
29214;SDS011;16252;49.816;7.964;2023-07-09T07:33:42;6.15;;;3.60;;
29214;SDS011;16252;49.816;7.964;2023-07-09T07:36:07;3.78;;;2.97;;
29214;SDS011;16252;49.816;7.964;2023-07-09T07:38:33;3.88;;;2.80;;
29214;SDS011;16252;49.816;7.964;2023-07-09T07:41:00;3.58;;;2.55;;
29214;SDS011;16252;49.816;7.964;2023-07-09T07:43:25;4.18;;;2.92;;
29214;SDS011;16252;49.816;7.964;2023-07-09T07:45:51;4.20;;;2.70;;
29214;SDS011;16252;49.816;7.964;2023-07-09T07:48:16;5.00;;;2.90;;
29214;SDS011;16252;49.816;7.964;2023-07-09T07:50:41;3.45;;;2.53;;
29214;SDS011;16252;49.816;7.964;2023-07-09T07:53:07;3.00;;;2.58;;
29214;SDS011;16252;49.816;7.964;2023-07-09T07:55:33;3.67;;;2.70;;
29214;SDS011;16252;49.816;7.964;2023-07-09T07:57:59;2.45;;;2.25;;
29214;SDS011;16252;49.816;7.964;2023-07-09T08:00:27;3.42;;;2.47;;
29214;SDS011;16252;49.816;7.964;2023-07-09T08:02:53;2.47;;;2.13;;
29214;SDS011;16252;49.816;7.964;2023-07-09T08:05:18;6.40;;;2.80;;
29214;SDS011;16252;49.816;7.964;2023-07-09T08:07:44;2.88;;;2.40;;
29214;SDS011;16252;49.816;7.964;2023-07-09T08:10:09;4.05;;;2.63;;
29214;SDS011;16252;49.816;7.964;2023-07-09T08:12:36;2.97;;;2.50;;
29214;SDS011;16252;49.816;7.964;2023-07-09T08:15:02;5.75;;;2.78;;
29214;SDS011;16252;49.816;7.964;2023-07-09T08:17:27;4.18;;;2.83;;
29214;SDS011;16252;49.816;7.964;2023-07-09T08:19:53;3.65;;;2.83;;
29214;SDS011;16252;49.816;7.964;2023-07-09T08:22:19;3.58;;;2.72;;
29214;SDS011;16252;49.816;7.964;2023-07-09T08:24:46;2.83;;;2.40;;
29214;SDS011;16252;49.816;7.964;2023-07-09T08:27:12;2.90;;;2.50;;
29214;SDS011;16252;49.816;7.964;2023-07-09T08:29:38;4.25;;;3.10;;
29214;SDS011;16252;49.816;7.964;2023-07-09T08:32:05;3.53;;;2.45;;
29214;SDS011;16252;49.816;7.964;2023-07-09T08:34:31;4.25;;;2.88;;
29214;SDS011;16252;49.816;7.964;2023-07-09T08:36:56;7.28;;;2.90;;
29214;SDS011;16252;49.816;7.964;2023-07-09T08:39:21;4.93;;;3.03;;
29214;SDS011;16252;49.816;7.964;2023-07-09T08:41:49;3.55;;;2.70;;
29214;SDS011;16252;49.816;7.964;2023-07-09T08:44:44;3.40;;;3.00;;
29214;SDS011;16252;49.816;7.964;2023-07-09T08:50:11;3.30;;;3.00;;
29214;SDS011;16252;49.816;7.964;2023-07-09T08:52:40;3.45;;;2.50;;
29214;SDS011;16252;49.816;7.964;2023-07-09T08:55:09;2.85;;;2.58;;
29214;SDS011;16252;49.816;7.964;2023-07-09T08:57:45;4.13;;;2.50;;
29214;SDS011;16252;49.816;7.964;2023-07-09T09:02:44;3.15;;;2.72;;
29214;SDS011;16252;49.816;7.964;2023-07-09T09:05:14;2.65;;;2.45;;
29214;SDS011;16252;49.816;7.964;2023-07-09T09:07:44;3.05;;;2.60;;
29214;SDS011;16252;49.816;7.964;2023-07-09T09:10:14;2.90;;;2.60;;
29214;SDS011;16252;49.816;7.964;2023-07-09T09:15:30;4.57;;;3.30;;
29214;SDS011;16252;49.816;7.964;2023-07-09T09:17:58;3.28;;;2.78;;
29214;SDS011;16252;49.816;7.964;2023-07-09T09:20:37;2.45;;;2.25;;
29214;SDS011;16252;49.816;7.964;2023-07-09T09:25:41;2.90;;;2.55;;
29214;SDS011;16252;49.816;7.964;2023-07-09T09:28:10;3.97;;;2.63;;
29214;SDS011;16252;49.816;7.964;2023-07-09T09:30:36;3.25;;;2.67;;
29214;SDS011;16252;49.816;7.964;2023-07-09T09:33:02;2.63;;;2.43;;
29214;SDS011;16252;49.816;7.964;2023-07-09T09:35:39;2.67;;;2.47;;
29214;SDS011;16252;49.816;7.964;2023-07-09T09:38:11;3.38;;;2.88;;
29214;SDS011;16252;49.816;7.964;2023-07-09T09:43:14;3.72;;;2.78;;
29214;SDS011;16252;49.816;7.964;2023-07-09T09:45:45;3.00;;;2.70;;
29214;SDS011;16252;49.816;7.964;2023-07-09T09:48:19;4.05;;;2.78;;
29214;SDS011;16252;49.816;7.964;2023-07-09T09:50:52;3.85;;;3.17;;
29214;SDS011;16252;49.816;7.964;2023-07-09T09:53:19;3.22;;;2.83;;
29214;SDS011;16252;49.816;7.964;2023-07-09T09:55:46;4.28;;;3.00;;
29214;SDS011;16252;49.816;7.964;2023-07-09T09:58:13;3.65;;;2.97;;
29214;SDS011;16252;49.816;7.964;2023-07-09T10:00:40;3.25;;;2.80;;
29214;SDS011;16252;49.816;7.964;2023-07-09T10:03:05;4.30;;;2.78;;
29214;SDS011;16252;49.816;7.964;2023-07-09T10:05:37;4.53;;;3.30;;
29214;SDS011;16252;49.816;7.964;2023-07-09T10:08:13;3.38;;;3.00;;
29214;SDS011;16252;49.816;7.964;2023-07-09T10:10:50;3.38;;;3.05;;
29214;SDS011;16252;49.816;7.964;2023-07-09T10:13:31;3.80;;;2.88;;
29214;SDS011;16252;49.816;7.964;2023-07-09T10:16:13;3.72;;;2.50;;
29214;SDS011;16252;49.816;7.964;2023-07-09T10:18:48;3.63;;;2.95;;
29214;SDS011;16252;49.816;7.964;2023-07-09T10:21:23;7.22;;;2.80;;
29214;SDS011;16252;49.816;7.964;2023-07-09T10:24:09;3.60;;;2.80;;
29214;SDS011;16252;49.816;7.964;2023-07-09T10:27:00;3.78;;;3.00;;
29214;SDS011;16252;49.816;7.964;2023-07-09T10:29:38;3.28;;;2.95;;
29214;SDS011;16252;49.816;7.964;2023-07-09T10:35:26;3.67;;;3.00;;
29214;SDS011;16252;49.816;7.964;2023-07-09T10:38:07;4.15;;;3.15;;
29214;SDS011;16252;49.816;7.964;2023-07-09T10:40:49;4.97;;;2.97;;
29214;SDS011;16252;49.816;7.964;2023-07-09T10:43:20;5.22;;;2.88;;
29214;SDS011;16252;49.816;7.964;2023-07-09T10:45:55;4.68;;;2.97;;
29214;SDS011;16252;49.816;7.964;2023-07-09T10:48:35;3.60;;;2.70;;
29214;SDS011;16252;49.816;7.964;2023-07-09T10:51:10;3.95;;;2.80;;
29214;SDS011;16252;49.816;7.964;2023-07-09T10:53:46;3.33;;;2.90;;
29214;SDS011;16252;49.816;7.964;2023-07-09T10:56:16;4.35;;;3.10;;
29214;SDS011;16252;49.816;7.964;2023-07-09T10:58:50;3.10;;;2.72;;
29214;SDS011;16252;49.816;7.964;2023-07-09T11:01:27;3.30;;;2.75;;
29214;SDS011;16252;49.816;7.964;2023-07-09T11:03:59;2.83;;;2.28;;
29214;SDS011;16252;49.816;7.964;2023-07-09T11:06:33;3.30;;;2.60;;
29214;SDS011;16252;49.816;7.964;2023-07-09T11:09:04;3.15;;;2.67;;
29214;SDS011;16252;49.816;7.964;2023-07-09T11:11:37;3.47;;;2.65;;
29214;SDS011;16252;49.816;7.964;2023-07-09T11:14:16;3.70;;;2.83;;
29214;SDS011;16252;49.816;7.964;2023-07-09T11:16:57;4.75;;;3.03;;
29214;SDS011;16252;49.816;7.964;2023-07-09T11:19:24;3.83;;;2.75;;
29214;SDS011;16252;49.816;7.964;2023-07-09T11:27:30;3.50;;;2.40;;
29214;SDS011;16252;49.816;7.964;2023-07-09T11:30:01;4.47;;;2.95;;
29214;SDS011;16252;49.816;7.964;2023-07-09T11:32:30;3.80;;;2.63;;
29214;SDS011;16252;49.816;7.964;2023-07-09T11:35:05;3.08;;;2.78;;
29214;SDS011;16252;49.816;7.964;2023-07-09T11:37:43;3.40;;;2.60;;
29214;SDS011;16252;49.816;7.964;2023-07-09T11:40:10;3.13;;;2.70;;
29214;SDS011;16252;49.816;7.964;2023-07-09T11:42:57;3.47;;;2.72;;
29214;SDS011;16252;49.816;7.964;2023-07-09T11:45:26;3.22;;;2.67;;
29214;SDS011;16252;49.816;7.964;2023-07-09T11:47:57;3.00;;;2.55;;
29214;SDS011;16252;49.816;7.964;2023-07-09T11:50:46;4.15;;;3.03;;
29214;SDS011;16252;49.816;7.964;2023-07-09T11:53:30;4.75;;;3.00;;
29214;SDS011;16252;49.816;7.964;2023-07-09T11:56:22;3.10;;;2.80;;
29214;SDS011;16252;49.816;7.964;2023-07-09T11:58:56;2.45;;;2.17;;
29214;SDS011;16252;49.816;7.964;2023-07-09T12:01:23;4.15;;;2.47;;
29214;SDS011;16252;49.816;7.964;2023-07-09T12:03:52;3.88;;;2.70;;
29214;SDS011;16252;49.816;7.964;2023-07-09T12:06:25;4.18;;;3.28;;
29214;SDS011;16252;49.816;7.964;2023-07-09T12:08:52;4.35;;;2.80;;
29214;SDS011;16252;49.816;7.964;2023-07-09T12:11:20;6.72;;;2.78;;
29214;SDS011;16252;49.816;7.964;2023-07-09T12:13:54;3.65;;;2.78;;
29214;SDS011;16252;49.816;7.964;2023-07-09T12:16:31;3.20;;;2.30;;
29214;SDS011;16252;49.816;7.964;2023-07-09T12:18:59;3.15;;;2.58;;
29214;SDS011;16252;49.816;7.964;2023-07-09T12:21:25;2.78;;;2.40;;
29214;SDS011;16252;49.816;7.964;2023-07-09T12:23:52;5.95;;;2.75;;
29214;SDS011;16252;49.816;7.964;2023-07-09T12:26:23;2.95;;;2.33;;
29214;SDS011;16252;49.816;7.964;2023-07-09T12:28:49;3.88;;;2.92;;
29214;SDS011;16252;49.816;7.964;2023-07-09T12:31:25;3.65;;;2.67;;
29214;SDS011;16252;49.816;7.964;2023-07-09T12:33:53;3.33;;;2.53;;
29214;SDS011;16252;49.816;7.964;2023-07-09T12:36:19;4.32;;;2.80;;
29214;SDS011;16252;49.816;7.964;2023-07-09T12:38:49;2.80;;;2.50;;
29214;SDS011;16252;49.816;7.964;2023-07-09T12:43:53;3.40;;;2.70;;
29214;SDS011;16252;49.816;7.964;2023-07-09T12:46:20;3.65;;;2.47;;
29214;SDS011;16252;49.816;7.964;2023-07-09T12:48:46;3.40;;;2.42;;
29214;SDS011;16252;49.816;7.964;2023-07-09T12:51:22;3.65;;;2.30;;
29214;SDS011;16252;49.816;7.964;2023-07-09T12:53:59;3.15;;;2.65;;
29214;SDS011;16252;49.816;7.964;2023-07-09T12:56:26;5.32;;;2.90;;
29214;SDS011;16252;49.816;7.964;2023-07-09T12:58:55;3.28;;;2.70;;
29214;SDS011;16252;49.816;7.964;2023-07-09T13:01:21;3.88;;;2.72;;
29214;SDS011;16252;49.816;7.964;2023-07-09T13:03:56;2.95;;;2.35;;
29214;SDS011;16252;49.816;7.964;2023-07-09T13:06:26;3.00;;;2.50;;
29214;SDS011;16252;49.816;7.964;2023-07-09T13:08:59;4.07;;;2.67;;
29214;SDS011;16252;49.816;7.964;2023-07-09T13:11:31;3.30;;;2.45;;
29214;SDS011;16252;49.816;7.964;2023-07-09T13:14:01;3.15;;;2.30;;
29214;SDS011;16252;49.816;7.964;2023-07-09T13:16:28;5.05;;;2.70;;
29214;SDS011;16252;49.816;7.964;2023-07-09T13:18:54;2.75;;;2.03;;
29214;SDS011;16252;49.816;7.964;2023-07-09T13:21:20;3.70;;;2.28;;
29214;SDS011;16252;49.816;7.964;2023-07-09T13:23:47;3.08;;;2.40;;
29214;SDS011;16252;49.816;7.964;2023-07-09T13:26:12;3.60;;;2.55;;
29214;SDS011;16252;49.816;7.964;2023-07-09T13:28:39;2.95;;;2.45;;
29214;SDS011;16252;49.816;7.964;2023-07-09T13:33:35;4.55;;;2.53;;
29214;SDS011;16252;49.816;7.964;2023-07-09T13:36:01;4.03;;;2.53;;
29214;SDS011;16252;49.816;7.964;2023-07-09T13:38:27;3.65;;;2.42;;
29214;SDS011;16252;49.816;7.964;2023-07-09T13:40:56;3.80;;;2.80;;
29214;SDS011;16252;49.816;7.964;2023-07-09T13:43:29;3.40;;;2.47;;
29214;SDS011;16252;49.816;7.964;2023-07-09T13:45:59;2.63;;;2.40;;
29214;SDS011;16252;49.816;7.964;2023-07-09T13:48:28;3.92;;;3.00;;
29214;SDS011;16252;49.816;7.964;2023-07-09T13:50:56;3.45;;;2.30;;
29214;SDS011;16252;49.816;7.964;2023-07-09T13:53:23;3.47;;;2.40;;
29214;SDS011;16252;49.816;7.964;2023-07-09T13:55:52;4.75;;;3.05;;
29214;SDS011;16252;49.816;7.964;2023-07-09T13:58:19;3.72;;;2.40;;
29214;SDS011;16252;49.816;7.964;2023-07-09T14:00:46;3.25;;;2.72;;
29214;SDS011;16252;49.816;7.964;2023-07-09T14:03:21;4.53;;;3.17;;
29214;SDS011;16252;49.816;7.964;2023-07-09T14:05:50;3.40;;;2.55;;
29214;SDS011;16252;49.816;7.964;2023-07-09T14:08:16;2.30;;;2.10;;
29214;SDS011;16252;49.816;7.964;2023-07-09T14:10:44;3.70;;;2.80;;
29214;SDS011;16252;49.816;7.964;2023-07-09T14:13:12;3.67;;;2.30;;
29214;SDS011;16252;49.816;7.964;2023-07-09T14:15:39;3.53;;;2.90;;
29214;SDS011;16252;49.816;7.964;2023-07-09T14:18:05;3.35;;;2.53;;
29214;SDS011;16252;49.816;7.964;2023-07-09T14:20:36;4.18;;;2.67;;
29214;SDS011;16252;49.816;7.964;2023-07-09T14:23:01;3.50;;;2.25;;
29214;SDS011;16252;49.816;7.964;2023-07-09T14:25:27;5.80;;;2.22;;
29214;SDS011;16252;49.816;7.964;2023-07-09T14:27:53;3.85;;;2.58;;
29214;SDS011;16252;49.816;7.964;2023-07-09T14:30:20;2.80;;;2.38;;
29214;SDS011;16252;49.816;7.964;2023-07-09T14:32:48;3.58;;;2.50;;
29214;SDS011;16252;49.816;7.964;2023-07-09T14:35:16;2.92;;;2.30;;
29214;SDS011;16252;49.816;7.964;2023-07-09T14:37:47;3.03;;;2.28;;
29214;SDS011;16252;49.816;7.964;2023-07-09T14:40:14;2.67;;;2.17;;
29214;SDS011;16252;49.816;7.964;2023-07-09T14:42:40;3.40;;;2.50;;
29214;SDS011;16252;49.816;7.964;2023-07-09T14:45:27;3.15;;;2.70;;
29214;SDS011;16252;49.816;7.964;2023-07-09T14:47:53;5.95;;;2.85;;
29214;SDS011;16252;49.816;7.964;2023-07-09T14:50:19;3.30;;;2.42;;
29214;SDS011;16252;49.816;7.964;2023-07-09T14:52:47;3.50;;;2.53;;
29214;SDS011;16252;49.816;7.964;2023-07-09T14:55:16;2.70;;;2.30;;
29214;SDS011;16252;49.816;7.964;2023-07-09T14:57:45;5.10;;;2.45;;
29214;SDS011;16252;49.816;7.964;2023-07-09T15:00:12;2.90;;;2.38;;
29214;SDS011;16252;49.816;7.964;2023-07-09T15:02:39;2.70;;;2.40;;
29214;SDS011;16252;49.816;7.964;2023-07-09T15:05:10;3.00;;;2.17;;
29214;SDS011;16252;49.816;7.964;2023-07-09T15:07:39;3.03;;;2.15;;
29214;SDS011;16252;49.816;7.964;2023-07-09T15:10:05;3.03;;;2.60;;
29214;SDS011;16252;49.816;7.964;2023-07-09T15:12:33;4.10;;;2.40;;
29214;SDS011;16252;49.816;7.964;2023-07-09T15:15:12;2.60;;;2.22;;
29214;SDS011;16252;49.816;7.964;2023-07-09T15:17:38;6.18;;;2.45;;
29214;SDS011;16252;49.816;7.964;2023-07-09T15:20:03;4.03;;;2.40;;
29214;SDS011;16252;49.816;7.964;2023-07-09T15:22:33;2.92;;;2.45;;
29214;SDS011;16252;49.816;7.964;2023-07-09T15:25:00;2.50;;;2.30;;